sensor_id;sensor_type;location;lat;lon;timestamp;pressure;altitude;pressure_sealevel;temperature;humidity
39177;BME280;24904;52.208;21.192;2023-07-29T00:04:51;99739.05;;;17.31;92.13
39177;BME280;24904;52.208;21.192;2023-07-29T00:09:56;99743.85;;;17.29;92.21
39177;BME280;24904;52.208;21.192;2023-07-29T00:15:02;99746.23;;;17.29;92.12
39177;BME280;24904;52.208;21.192;2023-07-29T00:20:08;99749.88;;;17.23;92.03
39177;BME280;24904;52.208;21.192;2023-07-29T00:25:13;99754.30;;;17.24;92.25
39177;BME280;24904;52.208;21.192;2023-07-29T00:30:19;99755.60;;;17.22;92.12
39177;BME280;24904;52.208;21.192;2023-07-29T00:35:23;99764.16;;;17.19;92.01
39177;BME280;24904;52.208;21.192;2023-07-29T00:40:29;99767.12;;;17.14;92.02
39177;BME280;24904;52.208;21.192;2023-07-29T00:45:35;99771.87;;;17.12;92.14
39177;BME280;24904;52.208;21.192;2023-07-29T00:50:41;99774.95;;;17.10;92.16
39177;BME280;24904;52.208;21.192;2023-07-29T00:55:47;99778.40;;;17.10;92.49
39177;BME280;24904;52.208;21.192;2023-07-29T01:00:53;99779.65;;;17.15;92.59
39177;BME280;24904;52.208;21.192;2023-07-29T01:06:08;99778.61;;;17.15;92.53
39177;BME280;24904;52.208;21.192;2023-07-29T01:11:27;99779.48;;;17.14;92.47
39177;BME280;24904;52.208;21.192;2023-07-29T01:16:40;99778.45;;;17.09;92.05
39177;BME280;24904;52.208;21.192;2023-07-29T01:21:46;99779.90;;;17.02;91.85
39177;BME280;24904;52.208;21.192;2023-07-29T01:26:52;99784.02;;;16.91;91.48
39177;BME280;24904;52.208;21.192;2023-07-29T01:32:02;99794.14;;;16.82;91.04
39177;BME280;24904;52.208;21.192;2023-07-29T01:37:11;99802.38;;;16.73;90.75
39177;BME280;24904;52.208;21.192;2023-07-29T01:42:19;99805.45;;;16.61;90.43
39177;BME280;24904;52.208;21.192;2023-07-29T01:47:24;99806.60;;;16.49;89.84
39177;BME280;24904;52.208;21.192;2023-07-29T01:52:32;99804.66;;;16.37;89.77
39177;BME280;24904;52.208;21.192;2023-07-29T01:57:37;99805.84;;;16.29;89.90
39177;BME280;24904;52.208;21.192;2023-07-29T02:02:42;99815.84;;;16.24;89.90
39177;BME280;24904;52.208;21.192;2023-07-29T02:07:47;99817.07;;;16.19;89.87
39177;BME280;24904;52.208;21.192;2023-07-29T02:12:52;99825.42;;;16.13;89.66
39177;BME280;24904;52.208;21.192;2023-07-29T02:17:57;99825.66;;;16.04;89.37
39177;BME280;24904;52.208;21.192;2023-07-29T02:23:04;99826.56;;;15.95;88.94
39177;BME280;24904;52.208;21.192;2023-07-29T02:28:09;99830.56;;;15.84;88.87
39177;BME280;24904;52.208;21.192;2023-07-29T02:33:14;99833.79;;;15.77;89.13
39177;BME280;24904;52.208;21.192;2023-07-29T02:38:19;99835.03;;;15.73;89.02
39177;BME280;24904;52.208;21.192;2023-07-29T02:43:24;99839.54;;;15.66;88.84
39177;BME280;24904;52.208;21.192;2023-07-29T02:48:30;99839.69;;;15.61;88.72
39177;BME280;24904;52.208;21.192;2023-07-29T02:53:35;99836.10;;;15.52;88.54
39177;BME280;24904;52.208;21.192;2023-07-29T02:58:41;99838.67;;;15.40;88.38
39177;BME280;24904;52.208;21.192;2023-07-29T03:03:46;99845.16;;;15.36;88.47
39177;BME280;24904;52.208;21.192;2023-07-29T03:08:51;99847.29;;;15.31;88.30
39177;BME280;24904;52.208;21.192;2023-07-29T03:13:56;99856.02;;;15.24;88.32
39177;BME280;24904;52.208;21.192;2023-07-29T03:19:02;99854.48;;;15.17;88.09
39177;BME280;24904;52.208;21.192;2023-07-29T03:24:07;99860.60;;;15.04;87.83
39177;BME280;24904;52.208;21.192;2023-07-29T03:29:12;99863.73;;;15.01;88.05
39177;BME280;24904;52.208;21.192;2023-07-29T03:34:17;99863.92;;;14.94;87.88
39177;BME280;24904;52.208;21.192;2023-07-29T03:39:23;99860.13;;;14.94;88.49
39177;BME280;24904;52.208;21.192;2023-07-29T03:44:28;99867.44;;;14.97;88.64
39177;BME280;24904;52.208;21.192;2023-07-29T03:49:34;99874.67;;;14.98;88.82
39177;BME280;24904;52.208;21.192;2023-07-29T03:54:40;99885.15;;;15.00;89.16
39177;BME280;24904;52.208;21.192;2023-07-29T03:59:45;99881.60;;;15.04;89.54
39177;BME280;24904;52.208;21.192;2023-07-29T04:04:50;99883.94;;;15.08;89.83
39177;BME280;24904;52.208;21.192;2023-07-29T04:09:55;99884.77;;;15.15;90.10
39177;BME280;24904;52.208;21.192;2023-07-29T04:15:00;99888.54;;;15.22;90.32
39177;BME280;24904;52.208;21.192;2023-07-29T04:20:06;99889.16;;;15.27;90.44
39177;BME280;24904;52.208;21.192;2023-07-29T04:25:12;99895.48;;;15.32;90.64
39177;BME280;24904;52.208;21.192;2023-07-29T04:30:17;99896.75;;;15.38;90.88
39177;BME280;24904;52.208;21.192;2023-07-29T04:35:22;99905.42;;;15.43;91.27
39177;BME280;24904;52.208;21.192;2023-07-29T04:40:27;99912.17;;;15.52;91.51
39177;BME280;24904;52.208;21.192;2023-07-29T04:45:32;99918.41;;;15.63;91.87
39177;BME280;24904;52.208;21.192;2023-07-29T04:50:37;99922.52;;;15.73;92.13
39177;BME280;24904;52.208;21.192;2023-07-29T04:55:45;99928.86;;;15.86;92.76
39177;BME280;24904;52.208;21.192;2023-07-29T05:00:50;99931.00;;;15.99;93.38
39177;BME280;24904;52.208;21.192;2023-07-29T05:05:55;99940.05;;;16.15;94.02
39177;BME280;24904;52.208;21.192;2023-07-29T05:11:01;99952.86;;;16.32;94.72
39177;BME280;24904;52.208;21.192;2023-07-29T05:16:06;99956.45;;;16.47;95.11
39177;BME280;24904;52.208;21.192;2023-07-29T05:21:11;99960.23;;;16.60;94.81
39177;BME280;24904;52.208;21.192;2023-07-29T05:26:18;99961.18;;;16.69;94.94
39177;BME280;24904;52.208;21.192;2023-07-29T05:31:23;99959.05;;;16.77;94.77
39177;BME280;24904;52.208;21.192;2023-07-29T05:36:28;99954.41;;;16.86;94.90
39177;BME280;24904;52.208;21.192;2023-07-29T05:41:34;99959.02;;;16.96;94.48
39177;BME280;24904;52.208;21.192;2023-07-29T05:46:39;99961.48;;;17.08;94.43
39177;BME280;24904;52.208;21.192;2023-07-29T05:51:44;99955.29;;;17.18;93.92
39177;BME280;24904;52.208;21.192;2023-07-29T05:56:49;99951.27;;;17.28;93.60
39177;BME280;24904;52.208;21.192;2023-07-29T06:01:54;99957.70;;;17.38;93.38
39177;BME280;24904;52.208;21.192;2023-07-29T06:07:00;99970.03;;;17.53;93.57
39177;BME280;24904;52.208;21.192;2023-07-29T06:12:06;99969.27;;;17.65;92.97
39177;BME280;24904;52.208;21.192;2023-07-29T06:17:11;99977.66;;;17.83;92.81
39177;BME280;24904;52.208;21.192;2023-07-29T06:22:16;99985.62;;;18.01;91.84
39177;BME280;24904;52.208;21.192;2023-07-29T06:27:21;100000.69;;;18.05;90.85
39177;BME280;24904;52.208;21.192;2023-07-29T06:32:28;100005.61;;;18.11;90.38
39177;BME280;24904;52.208;21.192;2023-07-29T06:37:33;100004.16;;;18.15;90.37
39177;BME280;24904;52.208;21.192;2023-07-29T06:42:38;100007.98;;;18.21;90.30
39177;BME280;24904;52.208;21.192;2023-07-29T06:47:43;100013.34;;;18.28;90.51
39177;BME280;24904;52.208;21.192;2023-07-29T06:52:48;100014.22;;;18.40;90.75
39177;BME280;24904;52.208;21.192;2023-07-29T06:57:53;100017.58;;;18.58;90.13
39177;BME280;24904;52.208;21.192;2023-07-29T07:02:58;100014.81;;;18.72;89.09
39177;BME280;24904;52.208;21.192;2023-07-29T07:08:03;100012.38;;;18.88;88.94
39177;BME280;24904;52.208;21.192;2023-07-29T07:13:08;100007.22;;;19.04;88.71
39177;BME280;24904;52.208;21.192;2023-07-29T07:18:13;100013.27;;;19.22;88.12
39177;BME280;24904;52.208;21.192;2023-07-29T07:23:18;100014.05;;;19.25;86.80
39177;BME280;24904;52.208;21.192;2023-07-29T07:28:23;100012.41;;;19.24;85.93
39177;BME280;24904;52.208;21.192;2023-07-29T07:33:28;100012.61;;;19.41;86.56
39177;BME280;24904;52.208;21.192;2023-07-29T07:38:33;100008.59;;;19.53;85.55
39177;BME280;24904;52.208;21.192;2023-07-29T07:43:38;100004.45;;;19.62;85.21
39177;BME280;24904;52.208;21.192;2023-07-29T07:48:43;100001.81;;;19.79;85.16
39177;BME280;24904;52.208;21.192;2023-07-29T07:53:50;100009.60;;;20.06;84.84
39177;BME280;24904;52.208;21.192;2023-07-29T07:58:55;100014.14;;;20.34;84.41
39177;BME280;24904;52.208;21.192;2023-07-29T08:04:00;100013.02;;;20.52;82.85
39177;BME280;24904;52.208;21.192;2023-07-29T08:09:05;100012.54;;;20.67;82.06
39177;BME280;24904;52.208;21.192;2023-07-29T08:14:10;100011.61;;;20.84;81.45
39177;BME280;24904;52.208;21.192;2023-07-29T08:19:15;100006.47;;;20.98;80.38
39177;BME280;24904;52.208;21.192;2023-07-29T08:24:20;100005.04;;;20.95;78.83
39177;BME280;24904;52.208;21.192;2023-07-29T08:29:25;100005.02;;;21.07;79.11
39177;BME280;24904;52.208;21.192;2023-07-29T08:34:30;100004.71;;;21.19;78.37
39177;BME280;24904;52.208;21.192;2023-07-29T08:39:35;100001.84;;;21.26;77.28
39177;BME280;24904;52.208;21.192;2023-07-29T08:44:42;100003.45;;;21.34;76.66
39177;BME280;24904;52.208;21.192;2023-07-29T08:49:48;99998.50;;;21.50;76.12
39177;BME280;24904;52.208;21.192;2023-07-29T08:54:55;99998.02;;;21.64;75.39
39177;BME280;24904;52.208;21.192;2023-07-29T09:00:02;99993.70;;;21.84;75.09
39177;BME280;24904;52.208;21.192;2023-07-29T09:05:09;99994.33;;;21.98;74.08
39177;BME280;24904;52.208;21.192;2023-07-29T09:10:14;99998.85;;;21.96;72.60
39177;BME280;24904;52.208;21.192;2023-07-29T09:15:29;99989.50;;;21.81;72.68
39177;BME280;24904;52.208;21.192;2023-07-29T09:20:35;99996.21;;;21.86;72.73
39177;BME280;24904;52.208;21.192;2023-07-29T09:25:40;100000.69;;;22.04;71.61
39177;BME280;24904;52.208;21.192;2023-07-29T09:30:48;99998.82;;;22.20;70.76
39177;BME280;24904;52.208;21.192;2023-07-29T09:35:54;99996.56;;;22.31;69.78
39177;BME280;24904;52.208;21.192;2023-07-29T09:40:59;99992.13;;;22.42;68.91
39177;BME280;24904;52.208;21.192;2023-07-29T09:46:05;99989.63;;;22.56;68.72
39177;BME280;24904;52.208;21.192;2023-07-29T09:51:14;99982.19;;;22.70;68.33
39177;BME280;24904;52.208;21.192;2023-07-29T09:56:25;99970.98;;;22.87;67.84
39177;BME280;24904;52.208;21.192;2023-07-29T10:01:31;99971.24;;;22.97;66.66
39177;BME280;24904;52.208;21.192;2023-07-29T10:06:39;99969.08;;;22.97;65.92
39177;BME280;24904;52.208;21.192;2023-07-29T10:11:45;99965.16;;;23.05;66.46
39177;BME280;24904;52.208;21.192;2023-07-29T10:16:50;99963.83;;;23.12;64.66
39177;BME280;24904;52.208;21.192;2023-07-29T10:21:58;99963.21;;;23.05;64.21
39177;BME280;24904;52.208;21.192;2023-07-29T10:27:05;99961.98;;;23.13;64.21
39177;BME280;24904;52.208;21.192;2023-07-29T10:32:12;99952.39;;;23.23;64.00
39177;BME280;24904;52.208;21.192;2023-07-29T10:37:17;99953.56;;;23.40;64.25
39177;BME280;24904;52.208;21.192;2023-07-29T10:42:23;99952.80;;;23.53;62.74
39177;BME280;24904;52.208;21.192;2023-07-29T10:47:29;99952.14;;;23.52;62.09
39177;BME280;24904;52.208;21.192;2023-07-29T10:52:42;99947.11;;;23.35;62.20
39177;BME280;24904;52.208;21.192;2023-07-29T10:57:47;99947.67;;;23.28;62.65
39177;BME280;24904;52.208;21.192;2023-07-29T11:03:01;99944.14;;;23.10;62.69
39177;BME280;24904;52.208;21.192;2023-07-29T11:08:17;99939.74;;;22.85;62.52
39177;BME280;24904;52.208;21.192;2023-07-29T11:13:23;99933.74;;;22.66;62.89
39177;BME280;24904;52.208;21.192;2023-07-29T11:18:31;99933.55;;;22.55;63.05
39177;BME280;24904;52.208;21.192;2023-07-29T11:23:37;99930.67;;;22.63;63.37
39177;BME280;24904;52.208;21.192;2023-07-29T11:28:43;99921.77;;;22.78;62.28
39177;BME280;24904;52.208;21.192;2023-07-29T11:33:48;99915.23;;;22.94;62.70
39177;BME280;24904;52.208;21.192;2023-07-29T11:38:53;99913.15;;;23.00;61.94
39177;BME280;24904;52.208;21.192;2023-07-29T11:43:58;99905.13;;;23.09;62.01
39177;BME280;24904;52.208;21.192;2023-07-29T11:49:03;99895.30;;;23.19;61.32
39177;BME280;24904;52.208;21.192;2023-07-29T11:54:09;99893.47;;;23.30;60.77
39177;BME280;24904;52.208;21.192;2023-07-29T11:59:15;99885.73;;;23.41;60.92
39177;BME280;24904;52.208;21.192;2023-07-29T12:04:21;99873.36;;;23.53;60.53
39177;BME280;24904;52.208;21.192;2023-07-29T12:09:26;99871.16;;;23.59;59.73
39177;BME280;24904;52.208;21.192;2023-07-29T12:14:32;99862.69;;;23.65;59.76
39177;BME280;24904;52.208;21.192;2023-07-29T12:19:38;99859.80;;;23.72;59.38
39177;BME280;24904;52.208;21.192;2023-07-29T12:24:44;99857.14;;;23.78;60.19
39177;BME280;24904;52.208;21.192;2023-07-29T12:29:49;99852.15;;;23.83;59.67
39177;BME280;24904;52.208;21.192;2023-07-29T12:34:56;99847.55;;;23.88;58.98
39177;BME280;24904;52.208;21.192;2023-07-29T12:40:01;99845.61;;;23.96;58.82
39177;BME280;24904;52.208;21.192;2023-07-29T12:45:08;99845.59;;;24.06;58.61
39177;BME280;24904;52.208;21.192;2023-07-29T12:50:14;99842.92;;;24.11;58.14
39177;BME280;24904;52.208;21.192;2023-07-29T12:55:19;99843.91;;;24.15;57.83
39177;BME280;24904;52.208;21.192;2023-07-29T13:00:24;99833.77;;;24.20;57.39
39177;BME280;24904;52.208;21.192;2023-07-29T13:05:29;99828.57;;;24.31;57.27
39177;BME280;24904;52.208;21.192;2023-07-29T13:10:34;99828.35;;;24.38;56.99
39177;BME280;24904;52.208;21.192;2023-07-29T13:15:39;99826.77;;;24.42;56.99
39177;BME280;24904;52.208;21.192;2023-07-29T13:20:44;99817.62;;;24.44;56.55
39177;BME280;24904;52.208;21.192;2023-07-29T13:25:49;99815.13;;;24.44;56.92
39177;BME280;24904;52.208;21.192;2023-07-29T13:30:54;99810.55;;;24.45;56.46
39177;BME280;24904;52.208;21.192;2023-07-29T13:35:59;99808.02;;;24.49;56.49
39177;BME280;24904;52.208;21.192;2023-07-29T13:41:05;99802.70;;;24.51;55.95
39177;BME280;24904;52.208;21.192;2023-07-29T13:46:10;99801.98;;;24.48;56.19
39177;BME280;24904;52.208;21.192;2023-07-29T13:51:15;99798.60;;;24.45;56.19
39177;BME280;24904;52.208;21.192;2023-07-29T13:56:20;99794.17;;;24.45;55.95
39177;BME280;24904;52.208;21.192;2023-07-29T14:01:25;99790.16;;;24.47;55.65
39177;BME280;24904;52.208;21.192;2023-07-29T14:06:30;99779.86;;;24.48;56.20
39177;BME280;24904;52.208;21.192;2023-07-29T14:11:35;99772.75;;;24.49;55.54
39177;BME280;24904;52.208;21.192;2023-07-29T14:16:40;99768.15;;;24.51;55.54
39177;BME280;24904;52.208;21.192;2023-07-29T14:21:45;99760.25;;;24.51;55.72
39177;BME280;24904;52.208;21.192;2023-07-29T14:26:51;99759.58;;;24.51;55.30
39177;BME280;24904;52.208;21.192;2023-07-29T14:31:56;99754.59;;;24.52;55.04
39177;BME280;24904;52.208;21.192;2023-07-29T14:37:00;99752.04;;;24.52;55.20
39177;BME280;24904;52.208;21.192;2023-07-29T14:42:06;99749.86;;;24.49;55.42
39177;BME280;24904;52.208;21.192;2023-07-29T14:47:11;99746.28;;;24.47;55.50
39177;BME280;24904;52.208;21.192;2023-07-29T14:52:16;99745.32;;;24.47;55.33
39177;BME280;24904;52.208;21.192;2023-07-29T14:57:21;99748.54;;;24.50;55.16
39177;BME280;24904;52.208;21.192;2023-07-29T15:02:26;99747.93;;;24.54;55.38
39177;BME280;24904;52.208;21.192;2023-07-29T15:07:31;99742.89;;;24.55;55.32
39177;BME280;24904;52.208;21.192;2023-07-29T15:12:36;99740.20;;;24.56;55.32
39177;BME280;24904;52.208;21.192;2023-07-29T15:17:41;99730.02;;;24.50;56.78
39177;BME280;24904;52.208;21.192;2023-07-29T15:22:46;99728.22;;;24.44;56.91
39177;BME280;24904;52.208;21.192;2023-07-29T15:27:51;99722.67;;;24.41;55.91
39177;BME280;24904;52.208;21.192;2023-07-29T15:32:56;99716.30;;;24.41;55.88
39177;BME280;24904;52.208;21.192;2023-07-29T15:38:03;99718.22;;;24.43;55.95
39177;BME280;24904;52.208;21.192;2023-07-29T15:43:07;99717.00;;;24.44;56.23
39177;BME280;24904;52.208;21.192;2023-07-29T15:48:12;99713.91;;;24.42;55.92
39177;BME280;24904;52.208;21.192;2023-07-29T15:53:17;99714.66;;;24.41;56.28
39177;BME280;24904;52.208;21.192;2023-07-29T15:58:23;99710.60;;;24.42;56.22
39177;BME280;24904;52.208;21.192;2023-07-29T16:03:28;99706.33;;;24.44;56.15
39177;BME280;24904;52.208;21.192;2023-07-29T16:08:33;99706.11;;;24.46;56.18
39177;BME280;24904;52.208;21.192;2023-07-29T16:13:38;99699.31;;;24.45;56.17
39177;BME280;24904;52.208;21.192;2023-07-29T16:18:43;99695.53;;;24.45;56.28
39177;BME280;24904;52.208;21.192;2023-07-29T16:23:48;99694.39;;;24.43;56.46
39177;BME280;24904;52.208;21.192;2023-07-29T16:28:56;99697.95;;;24.43;56.65
39177;BME280;24904;52.208;21.192;2023-07-29T16:34:02;99695.69;;;24.42;56.52
39177;BME280;24904;52.208;21.192;2023-07-29T16:39:07;99688.71;;;24.42;56.57
39177;BME280;24904;52.208;21.192;2023-07-29T16:44:12;99681.06;;;24.42;56.85
39177;BME280;24904;52.208;21.192;2023-07-29T16:49:17;99674.26;;;24.41;56.79
39177;BME280;24904;52.208;21.192;2023-07-29T16:54:22;99669.34;;;24.40;57.02
39177;BME280;24904;52.208;21.192;2023-07-29T16:59:28;99659.89;;;24.38;57.09
39177;BME280;24904;52.208;21.192;2023-07-29T17:04:33;99650.41;;;24.33;57.47
39177;BME280;24904;52.208;21.192;2023-07-29T17:09:38;99653.11;;;24.27;57.74
39177;BME280;24904;52.208;21.192;2023-07-29T17:14:43;99658.55;;;24.22;57.78
39177;BME280;24904;52.208;21.192;2023-07-29T17:19:48;99656.87;;;24.16;58.09
39177;BME280;24904;52.208;21.192;2023-07-29T17:24:53;99656.42;;;24.10;58.28
39177;BME280;24904;52.208;21.192;2023-07-29T17:29:58;99660.30;;;24.02;58.99
39177;BME280;24904;52.208;21.192;2023-07-29T17:35:03;99654.35;;;23.89;59.24
39177;BME280;24904;52.208;21.192;2023-07-29T17:40:10;99651.73;;;23.79;59.58
39177;BME280;24904;52.208;21.192;2023-07-29T17:45:16;99655.09;;;23.69;60.01
39177;BME280;24904;52.208;21.192;2023-07-29T17:50:21;99655.93;;;23.57;60.36
39177;BME280;24904;52.208;21.192;2023-07-29T17:55:26;99651.73;;;23.43;60.90
39177;BME280;24904;52.208;21.192;2023-07-29T18:00:31;99647.30;;;23.29;61.31
39177;BME280;24904;52.208;21.192;2023-07-29T18:05:37;99643.73;;;23.17;61.87
39177;BME280;24904;52.208;21.192;2023-07-29T18:10:43;99635.82;;;23.04;62.30
39177;BME280;24904;52.208;21.192;2023-07-29T18:15:51;99633.44;;;22.92;62.81
39177;BME280;24904;52.208;21.192;2023-07-29T18:20:55;99635.77;;;22.82;63.18
39177;BME280;24904;52.208;21.192;2023-07-29T18:26:00;99635.06;;;22.73;63.24
39177;BME280;24904;52.208;21.192;2023-07-29T18:31:05;99623.16;;;22.62;63.33
39177;BME280;24904;52.208;21.192;2023-07-29T18:36:10;99627.41;;;22.51;63.65
39177;BME280;24904;52.208;21.192;2023-07-29T18:41:15;99641.00;;;22.39;64.15
39177;BME280;24904;52.208;21.192;2023-07-29T18:46:20;99645.69;;;22.28;64.72
39177;BME280;24904;52.208;21.192;2023-07-29T18:51:25;99646.27;;;22.19;65.04
39177;BME280;24904;52.208;21.192;2023-07-29T18:56:30;99638.06;;;22.11;65.44
39177;BME280;24904;52.208;21.192;2023-07-29T19:01:35;99639.91;;;22.02;65.77
39177;BME280;24904;52.208;21.192;2023-07-29T19:06:40;99642.01;;;21.93;65.94
39177;BME280;24904;52.208;21.192;2023-07-29T19:11:45;99634.21;;;21.85;66.33
39177;BME280;24904;52.208;21.192;2023-07-29T19:16:50;99624.72;;;21.82;66.30
39177;BME280;24904;52.208;21.192;2023-07-29T19:21:55;99623.04;;;21.80;66.59
39177;BME280;24904;52.208;21.192;2023-07-29T19:27:00;99619.37;;;21.75;66.65
39177;BME280;24904;52.208;21.192;2023-07-29T19:32:08;99624.58;;;21.71;66.76
39177;BME280;24904;52.208;21.192;2023-07-29T19:37:13;99620.31;;;21.72;66.86
39177;BME280;24904;52.208;21.192;2023-07-29T19:42:19;99613.52;;;21.70;66.88
39177;BME280;24904;52.208;21.192;2023-07-29T19:47:24;99605.35;;;21.67;66.93
39177;BME280;24904;52.208;21.192;2023-07-29T19:52:29;99598.77;;;21.64;66.93
39177;BME280;24904;52.208;21.192;2023-07-29T19:57:34;99598.27;;;21.61;66.98
39177;BME280;24904;52.208;21.192;2023-07-29T20:02:39;99596.56;;;21.60;67.12
39177;BME280;24904;52.208;21.192;2023-07-29T20:07:44;99601.38;;;21.60;67.19
39177;BME280;24904;52.208;21.192;2023-07-29T20:12:50;99604.71;;;21.57;67.32
39177;BME280;24904;52.208;21.192;2023-07-29T20:24:27;99601.05;;;21.55;67.49
39177;BME280;24904;52.208;21.192;2023-07-29T20:29:32;99604.39;;;21.51;67.69
39177;BME280;24904;52.208;21.192;2023-07-29T20:34:37;99601.13;;;21.46;67.94
39177;BME280;24904;52.208;21.192;2023-07-29T20:39:42;99599.33;;;21.43;68.25
39177;BME280;24904;52.208;21.192;2023-07-29T20:44:47;99584.78;;;21.39;68.62
39177;BME280;24904;52.208;21.192;2023-07-29T20:49:52;99585.75;;;21.35;68.81
39177;BME280;24904;52.208;21.192;2023-07-29T20:54:58;99586.17;;;21.33;69.14
39177;BME280;24904;52.208;21.192;2023-07-29T21:00:03;99586.33;;;21.31;69.50
39177;BME280;24904;52.208;21.192;2023-07-29T21:05:12;99590.50;;;21.29;69.66
39177;BME280;24904;52.208;21.192;2023-07-29T21:10:18;99601.02;;;21.31;69.86
39177;BME280;24904;52.208;21.192;2023-07-29T21:15:23;99639.59;;;21.36;70.14
39177;BME280;24904;52.208;21.192;2023-07-29T21:20:28;99664.04;;;21.39;70.23
39177;BME280;24904;52.208;21.192;2023-07-29T21:25:34;99687.03;;;21.38;71.21
39177;BME280;24904;52.208;21.192;2023-07-29T21:30:39;99697.06;;;21.16;73.08
39177;BME280;24904;52.208;21.192;2023-07-29T21:35:44;99713.89;;;20.82;74.34
39177;BME280;24904;52.208;21.192;2023-07-29T21:40:50;99724.33;;;20.44;75.07
39177;BME280;24904;52.208;21.192;2023-07-29T21:45:55;99732.55;;;20.15;76.08
39177;BME280;24904;52.208;21.192;2023-07-29T21:51:00;99727.42;;;19.97;77.24
39177;BME280;24904;52.208;21.192;2023-07-29T21:56:05;99737.30;;;19.82;78.19
39177;BME280;24904;52.208;21.192;2023-07-29T22:01:10;99742.92;;;19.70;78.96
39177;BME280;24904;52.208;21.192;2023-07-29T22:06:15;99757.35;;;19.58;79.90
39177;BME280;24904;52.208;21.192;2023-07-29T22:11:23;99772.23;;;19.52;80.78
39177;BME280;24904;52.208;21.192;2023-07-29T22:16:28;99775.02;;;19.48;81.39
39177;BME280;24904;52.208;21.192;2023-07-29T22:21:33;99748.05;;;19.38;82.02
39177;BME280;24904;52.208;21.192;2023-07-29T22:26:38;99728.36;;;19.31;82.91
39177;BME280;24904;52.208;21.192;2023-07-29T22:31:43;99698.45;;;19.26;83.51
39177;BME280;24904;52.208;21.192;2023-07-29T22:36:49;99676.59;;;19.26;84.02
39177;BME280;24904;52.208;21.192;2023-07-29T22:41:54;99662.94;;;19.23;84.37
39177;BME280;24904;52.208;21.192;2023-07-29T22:46:59;99660.37;;;19.24;84.45
39177;BME280;24904;52.208;21.192;2023-07-29T22:52:04;99645.27;;;19.20;84.48
39177;BME280;24904;52.208;21.192;2023-07-29T22:57:10;99628.58;;;19.12;84.84
39177;BME280;24904;52.208;21.192;2023-07-29T23:02:14;99630.41;;;19.08;85.15
39177;BME280;24904;52.208;21.192;2023-07-29T23:07:20;99609.69;;;19.03;85.08
39177;BME280;24904;52.208;21.192;2023-07-29T23:12:25;99594.77;;;18.93;84.70
39177;BME280;24904;52.208;21.192;2023-07-29T23:17:30;99586.33;;;18.82;84.85
39177;BME280;24904;52.208;21.192;2023-07-29T23:22:35;99581.88;;;18.76;85.33
39177;BME280;24904;52.208;21.192;2023-07-29T23:27:40;99583.91;;;18.75;85.72
39177;BME280;24904;52.208;21.192;2023-07-29T23:32:45;99575.19;;;18.74;86.20
39177;BME280;24904;52.208;21.192;2023-07-29T23:37:50;99560.37;;;18.73;86.36
39177;BME280;24904;52.208;21.192;2023-07-29T23:42:55;99559.08;;;18.68;86.55
39177;BME280;24904;52.208;21.192;2023-07-29T23:48:38;99564.34;;;18.72;86.56
39177;BME280;24904;52.208;21.192;2023-07-29T23:53:41;99574.51;;;18.68;86.80
39177;BME280;24904;52.208;21.192;2023-07-29T23:58:44;99584.00;;;18.69;87.16
